sensor_id;sensor_type;location;lat;lon;timestamp;P1;durP1;ratioP1;P2;durP2;ratioP2
63943;SDS011;50121;51.218;7.664;2023-05-10T00:00:56;4.43;;;4.07;;
63943;SDS011;50121;51.218;7.664;2023-05-10T00:03:23;4.40;;;4.00;;
63943;SDS011;50121;51.218;7.664;2023-05-10T00:05:51;4.45;;;4.15;;
63943;SDS011;50121;51.218;7.664;2023-05-10T00:08:19;4.97;;;4.32;;
63943;SDS011;50121;51.218;7.664;2023-05-10T00:10:46;4.60;;;4.30;;
63943;SDS011;50121;51.218;7.664;2023-05-10T00:13:14;4.65;;;4.30;;
63943;SDS011;50121;51.218;7.664;2023-05-10T00:15:42;4.35;;;4.05;;
63943;SDS011;50121;51.218;7.664;2023-05-10T00:18:09;4.65;;;4.35;;
63943;SDS011;50121;51.218;7.664;2023-05-10T00:20:37;4.40;;;4.10;;
63943;SDS011;50121;51.218;7.664;2023-05-10T00:23:05;4.30;;;3.90;;
63943;SDS011;50121;51.218;7.664;2023-05-10T00:25:32;4.70;;;4.40;;
63943;SDS011;50121;51.218;7.664;2023-05-10T00:28:00;4.45;;;4.15;;
63943;SDS011;50121;51.218;7.664;2023-05-10T00:30:28;5.47;;;3.85;;
63943;SDS011;50121;51.218;7.664;2023-05-10T00:32:56;4.30;;;4.00;;
63943;SDS011;50121;51.218;7.664;2023-05-10T00:35:23;4.22;;;3.92;;
63943;SDS011;50121;51.218;7.664;2023-05-10T00:37:51;4.30;;;4.00;;
63943;SDS011;50121;51.218;7.664;2023-05-10T00:40:19;4.22;;;3.83;;
63943;SDS011;50121;51.218;7.664;2023-05-10T00:42:52;4.20;;;3.88;;
63943;SDS011;50121;51.218;7.664;2023-05-10T00:45:20;3.55;;;3.35;;
63943;SDS011;50121;51.218;7.664;2023-05-10T00:47:48;3.80;;;3.50;;
63943;SDS011;50121;51.218;7.664;2023-05-10T00:50:16;5.03;;;3.92;;
63943;SDS011;50121;51.218;7.664;2023-05-10T00:52:43;3.83;;;3.53;;
63943;SDS011;50121;51.218;7.664;2023-05-10T00:55:11;3.70;;;3.40;;
63943;SDS011;50121;51.218;7.664;2023-05-10T00:57:39;3.90;;;3.60;;
63943;SDS011;50121;51.218;7.664;2023-05-10T01:00:07;3.88;;;3.67;;
63943;SDS011;50121;51.218;7.664;2023-05-10T01:02:34;3.65;;;3.45;;
63943;SDS011;50121;51.218;7.664;2023-05-10T01:05:02;4.00;;;3.45;;
63943;SDS011;50121;51.218;7.664;2023-05-10T01:07:30;3.75;;;3.45;;
63943;SDS011;50121;51.218;7.664;2023-05-10T01:09:58;3.50;;;3.30;;
63943;SDS011;50121;51.218;7.664;2023-05-10T01:12:26;3.50;;;3.30;;
63943;SDS011;50121;51.218;7.664;2023-05-10T01:14:54;3.72;;;3.42;;
63943;SDS011;50121;51.218;7.664;2023-05-10T01:17:22;3.63;;;3.42;;
63943;SDS011;50121;51.218;7.664;2023-05-10T01:19:50;4.35;;;3.67;;
63943;SDS011;50121;51.218;7.664;2023-05-10T01:35:23;3.95;;;3.65;;
63943;SDS011;50121;51.218;7.664;2023-05-10T01:38:04;4.18;;;3.88;;
63943;SDS011;50121;51.218;7.664;2023-05-10T01:41:12;3.97;;;3.67;;
63943;SDS011;50121;51.218;7.664;2023-05-10T01:43:30;4.57;;;4.18;;
63943;SDS011;50121;51.218;7.664;2023-05-10T01:46:07;4.00;;;3.70;;
63943;SDS011;50121;51.218;7.664;2023-05-10T01:48:51;3.88;;;3.58;;
63943;SDS011;50121;51.218;7.664;2023-05-10T01:51:21;4.43;;;4.03;;
63943;SDS011;50121;51.218;7.664;2023-05-10T01:53:49;4.20;;;3.80;;
63943;SDS011;50121;51.218;7.664;2023-05-10T01:56:19;3.65;;;3.40;;
63943;SDS011;50121;51.218;7.664;2023-05-10T01:58:47;4.70;;;3.90;;
63943;SDS011;50121;51.218;7.664;2023-05-10T02:01:16;4.60;;;4.20;;
63943;SDS011;50121;51.218;7.664;2023-05-10T02:03:46;4.20;;;3.90;;
63943;SDS011;50121;51.218;7.664;2023-05-10T02:06:14;4.18;;;3.88;;
63943;SDS011;50121;51.218;7.664;2023-05-10T02:08:43;6.32;;;4.22;;
63943;SDS011;50121;51.218;7.664;2023-05-10T02:11:13;4.57;;;4.18;;
63943;SDS011;50121;51.218;7.664;2023-05-10T02:13:41;4.72;;;4.32;;
63943;SDS011;50121;51.218;7.664;2023-05-10T02:16:10;7.70;;;4.38;;
63943;SDS011;50121;51.218;7.664;2023-05-10T02:18:38;5.00;;;4.60;;
63943;SDS011;50121;51.218;7.664;2023-05-10T02:21:08;5.20;;;4.75;;
63943;SDS011;50121;51.218;7.664;2023-05-10T02:23:38;5.00;;;4.60;;
63943;SDS011;50121;51.218;7.664;2023-05-10T02:26:06;5.35;;;4.85;;
63943;SDS011;50121;51.218;7.664;2023-05-10T02:28:34;4.85;;;4.45;;
63943;SDS011;50121;51.218;7.664;2023-05-10T02:31:04;5.07;;;4.68;;
63943;SDS011;50121;51.218;7.664;2023-05-10T02:33:32;5.72;;;4.85;;
63943;SDS011;50121;51.218;7.664;2023-05-10T02:36:01;4.75;;;4.30;;
63943;SDS011;50121;51.218;7.664;2023-05-10T02:38:30;5.30;;;4.85;;
63943;SDS011;50121;51.218;7.664;2023-05-10T02:40:59;5.30;;;4.80;;
63943;SDS011;50121;51.218;7.664;2023-05-10T02:43:27;5.32;;;4.82;;
63943;SDS011;50121;51.218;7.664;2023-05-10T02:45:57;5.45;;;4.65;;
63943;SDS011;50121;51.218;7.664;2023-05-10T02:48:25;5.22;;;4.72;;
63943;SDS011;50121;51.218;7.664;2023-05-10T02:50:52;5.00;;;4.57;;
63943;SDS011;50121;51.218;7.664;2023-05-10T02:53:23;5.57;;;5.07;;
63943;SDS011;50121;51.218;7.664;2023-05-10T02:55:51;5.32;;;4.82;;
63943;SDS011;50121;51.218;7.664;2023-05-10T02:58:19;5.38;;;4.88;;
63943;SDS011;50121;51.218;7.664;2023-05-10T03:00:47;5.65;;;5.15;;
63943;SDS011;50121;51.218;7.664;2023-05-10T03:03:15;5.50;;;4.90;;
63943;SDS011;50121;51.218;7.664;2023-05-10T03:05:42;5.10;;;4.60;;
63943;SDS011;50121;51.218;7.664;2023-05-10T03:08:10;5.32;;;4.82;;
63943;SDS011;50121;51.218;7.664;2023-05-10T03:10:41;5.70;;;5.15;;
63943;SDS011;50121;51.218;7.664;2023-05-10T03:13:16;5.60;;;5.10;;
63943;SDS011;50121;51.218;7.664;2023-05-10T03:18:28;5.80;;;5.20;;
63943;SDS011;50121;51.218;7.664;2023-05-10T03:20:57;5.65;;;5.15;;
63943;SDS011;50121;51.218;7.664;2023-05-10T03:23:27;5.43;;;4.82;;
63943;SDS011;50121;51.218;7.664;2023-05-10T03:25:57;7.13;;;5.50;;
63943;SDS011;50121;51.218;7.664;2023-05-10T03:28:25;5.97;;;5.38;;
63943;SDS011;50121;51.218;7.664;2023-05-10T03:30:53;6.20;;;5.20;;
63943;SDS011;50121;51.218;7.664;2023-05-10T03:33:22;5.65;;;5.05;;
63943;SDS011;50121;51.218;7.664;2023-05-10T03:35:50;6.13;;;5.40;;
63943;SDS011;50121;51.218;7.664;2023-05-10T03:38:17;6.20;;;5.00;;
63943;SDS011;50121;51.218;7.664;2023-05-10T03:40:45;6.80;;;5.78;;
63943;SDS011;50121;51.218;7.664;2023-05-10T03:43:12;5.80;;;5.18;;
63943;SDS011;50121;51.218;7.664;2023-05-10T03:45:41;6.03;;;5.40;;
63943;SDS011;50121;51.218;7.664;2023-05-10T03:48:08;6.75;;;5.90;;
63943;SDS011;50121;51.218;7.664;2023-05-10T03:50:36;6.45;;;5.85;;
63943;SDS011;50121;51.218;7.664;2023-05-10T03:53:03;5.30;;;4.80;;
63943;SDS011;50121;51.218;7.664;2023-05-10T03:55:31;5.78;;;4.95;;
63943;SDS011;50121;51.218;7.664;2023-05-10T03:58:02;6.30;;;5.70;;
63943;SDS011;50121;51.218;7.664;2023-05-10T04:00:32;6.95;;;5.97;;
63943;SDS011;50121;51.218;7.664;2023-05-10T04:03:00;7.70;;;6.82;;
63943;SDS011;50121;51.218;7.664;2023-05-10T04:05:27;8.80;;;7.13;;
63943;SDS011;50121;51.218;7.664;2023-05-10T04:07:55;8.93;;;7.38;;
63943;SDS011;50121;51.218;7.664;2023-05-10T04:10:22;10.05;;;8.60;;
63943;SDS011;50121;51.218;7.664;2023-05-10T04:12:50;9.60;;;8.15;;
63943;SDS011;50121;51.218;7.664;2023-05-10T04:15:17;9.95;;;8.85;;
63943;SDS011;50121;51.218;7.664;2023-05-10T04:17:46;10.88;;;8.82;;
63943;SDS011;50121;51.218;7.664;2023-05-10T04:20:14;11.63;;;8.90;;
63943;SDS011;50121;51.218;7.664;2023-05-10T04:22:42;12.00;;;9.13;;
63943;SDS011;50121;51.218;7.664;2023-05-10T04:25:09;12.82;;;9.65;;
63943;SDS011;50121;51.218;7.664;2023-05-10T04:27:37;10.32;;;9.23;;
63943;SDS011;50121;51.218;7.664;2023-05-10T04:30:05;11.70;;;9.30;;
63943;SDS011;50121;51.218;7.664;2023-05-10T04:32:33;11.20;;;10.00;;
63943;SDS011;50121;51.218;7.664;2023-05-10T04:35:00;11.50;;;8.98;;
63943;SDS011;50121;51.218;7.664;2023-05-10T04:37:31;9.95;;;8.25;;
63943;SDS011;50121;51.218;7.664;2023-05-10T04:39:58;9.93;;;8.93;;
63943;SDS011;50121;51.218;7.664;2023-05-10T04:42:26;10.75;;;9.15;;
63943;SDS011;50121;51.218;7.664;2023-05-10T04:44:57;10.80;;;9.15;;
63943;SDS011;50121;51.218;7.664;2023-05-10T04:47:24;13.18;;;9.68;;
63943;SDS011;50121;51.218;7.664;2023-05-10T04:49:52;14.30;;;10.68;;
63943;SDS011;50121;51.218;7.664;2023-05-10T04:52:19;12.50;;;10.38;;
63943;SDS011;50121;51.218;7.664;2023-05-10T04:54:47;12.15;;;10.48;;
63943;SDS011;50121;51.218;7.664;2023-05-10T04:57:15;13.23;;;10.43;;
63943;SDS011;50121;51.218;7.664;2023-05-10T04:59:43;13.77;;;10.75;;
63943;SDS011;50121;51.218;7.664;2023-05-10T05:02:10;12.57;;;9.90;;
63943;SDS011;50121;51.218;7.664;2023-05-10T05:04:38;14.80;;;10.43;;
63943;SDS011;50121;51.218;7.664;2023-05-10T05:07:05;14.23;;;10.48;;
63943;SDS011;50121;51.218;7.664;2023-05-10T05:09:33;11.73;;;10.23;;
63943;SDS011;50121;51.218;7.664;2023-05-10T05:12:01;13.82;;;10.10;;
63943;SDS011;50121;51.218;7.664;2023-05-10T05:14:28;11.40;;;10.20;;
63943;SDS011;50121;51.218;7.664;2023-05-10T05:16:56;16.73;;;10.10;;
63943;SDS011;50121;51.218;7.664;2023-05-10T05:19:24;13.32;;;10.45;;
63943;SDS011;50121;51.218;7.664;2023-05-10T05:21:51;12.85;;;9.95;;
63943;SDS011;50121;51.218;7.664;2023-05-10T05:24:19;12.50;;;10.43;;
63943;SDS011;50121;51.218;7.664;2023-05-10T05:26:46;12.10;;;10.60;;
63943;SDS011;50121;51.218;7.664;2023-05-10T05:29:14;13.60;;;10.77;;
63943;SDS011;50121;51.218;7.664;2023-05-10T05:31:42;13.35;;;10.57;;
63943;SDS011;50121;51.218;7.664;2023-05-10T05:34:10;13.05;;;10.32;;
63943;SDS011;50121;51.218;7.664;2023-05-10T05:36:37;13.07;;;10.15;;
63943;SDS011;50121;51.218;7.664;2023-05-10T05:39:05;13.98;;;10.43;;
63943;SDS011;50121;51.218;7.664;2023-05-10T05:41:32;13.80;;;10.05;;
63943;SDS011;50121;51.218;7.664;2023-05-10T05:44:04;15.00;;;10.93;;
63943;SDS011;50121;51.218;7.664;2023-05-10T05:46:32;14.07;;;10.70;;
63943;SDS011;50121;51.218;7.664;2023-05-10T05:49:00;14.15;;;10.52;;
63943;SDS011;50121;51.218;7.664;2023-05-10T05:51:27;16.80;;;12.13;;
63943;SDS011;50121;51.218;7.664;2023-05-10T05:53:55;19.58;;;11.98;;
63943;SDS011;50121;51.218;7.664;2023-05-10T05:56:23;17.23;;;12.02;;
63943;SDS011;50121;51.218;7.664;2023-05-10T05:58:51;16.48;;;11.90;;
63943;SDS011;50121;51.218;7.664;2023-05-10T06:01:18;20.55;;;11.85;;
63943;SDS011;50121;51.218;7.664;2023-05-10T06:03:46;16.70;;;11.80;;
63943;SDS011;50121;51.218;7.664;2023-05-10T06:06:14;19.85;;;11.98;;
63943;SDS011;50121;51.218;7.664;2023-05-10T06:08:41;17.25;;;12.13;;
63943;SDS011;50121;51.218;7.664;2023-05-10T06:11:09;16.35;;;11.82;;
63943;SDS011;50121;51.218;7.664;2023-05-10T06:13:36;20.30;;;11.93;;
63943;SDS011;50121;51.218;7.664;2023-05-10T06:16:04;19.85;;;12.07;;
63943;SDS011;50121;51.218;7.664;2023-05-10T06:18:32;19.38;;;12.30;;
63943;SDS011;50121;51.218;7.664;2023-05-10T06:21:00;19.30;;;12.18;;
63943;SDS011;50121;51.218;7.664;2023-05-10T06:23:27;18.10;;;12.88;;
63943;SDS011;50121;51.218;7.664;2023-05-10T06:25:55;16.70;;;11.32;;
63943;SDS011;50121;51.218;7.664;2023-05-10T06:28:23;17.67;;;11.82;;
63943;SDS011;50121;51.218;7.664;2023-05-10T06:30:50;16.00;;;12.13;;
63943;SDS011;50121;51.218;7.664;2023-05-10T06:33:18;18.75;;;11.88;;
63943;SDS011;50121;51.218;7.664;2023-05-10T06:35:46;18.92;;;12.95;;
63943;SDS011;50121;51.218;7.664;2023-05-10T06:38:13;19.35;;;12.38;;
63943;SDS011;50121;51.218;7.664;2023-05-10T06:40:42;20.20;;;12.75;;
63943;SDS011;50121;51.218;7.664;2023-05-10T06:43:09;17.92;;;12.23;;
63943;SDS011;50121;51.218;7.664;2023-05-10T06:45:37;18.48;;;12.40;;
63943;SDS011;50121;51.218;7.664;2023-05-10T06:48:04;15.90;;;12.15;;
63943;SDS011;50121;51.218;7.664;2023-05-10T06:50:32;18.00;;;12.32;;
63943;SDS011;50121;51.218;7.664;2023-05-10T06:53:00;16.25;;;11.80;;
63943;SDS011;50121;51.218;7.664;2023-05-10T06:55:28;14.77;;;10.63;;
63943;SDS011;50121;51.218;7.664;2023-05-10T06:57:56;15.10;;;10.80;;
63943;SDS011;50121;51.218;7.664;2023-05-10T07:00:23;16.42;;;10.77;;
63943;SDS011;50121;51.218;7.664;2023-05-10T07:02:51;13.25;;;9.38;;
63943;SDS011;50121;51.218;7.664;2023-05-10T07:05:19;15.13;;;9.18;;
63943;SDS011;50121;51.218;7.664;2023-05-10T07:07:46;12.30;;;8.88;;
63943;SDS011;50121;51.218;7.664;2023-05-10T07:10:14;14.90;;;10.25;;
63943;SDS011;50121;51.218;7.664;2023-05-10T07:12:41;14.40;;;9.80;;
63943;SDS011;50121;51.218;7.664;2023-05-10T07:15:09;14.73;;;10.38;;
63943;SDS011;50121;51.218;7.664;2023-05-10T07:17:37;18.13;;;10.93;;
63943;SDS011;50121;51.218;7.664;2023-05-10T07:20:05;18.05;;;11.35;;
63943;SDS011;50121;51.218;7.664;2023-05-10T07:22:33;15.88;;;10.98;;
63943;SDS011;50121;51.218;7.664;2023-05-10T07:25:00;31.10;;;18.65;;
63943;SDS011;50121;51.218;7.664;2023-05-10T07:27:28;18.42;;;12.73;;
63943;SDS011;50121;51.218;7.664;2023-05-10T07:29:56;17.13;;;11.77;;
63943;SDS011;50121;51.218;7.664;2023-05-10T07:32:23;18.13;;;11.52;;
63943;SDS011;50121;51.218;7.664;2023-05-10T07:34:51;17.65;;;11.77;;
63943;SDS011;50121;51.218;7.664;2023-05-10T07:37:19;21.30;;;12.63;;
63943;SDS011;50121;51.218;7.664;2023-05-10T07:39:46;20.77;;;12.25;;
63943;SDS011;50121;51.218;7.664;2023-05-10T07:42:14;19.23;;;12.90;;
63943;SDS011;50121;51.218;7.664;2023-05-10T07:44:42;19.67;;;13.23;;
63943;SDS011;50121;51.218;7.664;2023-05-10T07:47:09;20.42;;;13.68;;
63943;SDS011;50121;51.218;7.664;2023-05-10T07:49:37;19.23;;;13.48;;
63943;SDS011;50121;51.218;7.664;2023-05-10T07:52:05;20.85;;;14.18;;
63943;SDS011;50121;51.218;7.664;2023-05-10T07:54:32;21.88;;;14.05;;
63943;SDS011;50121;51.218;7.664;2023-05-10T07:57:00;18.95;;;13.15;;
63943;SDS011;50121;51.218;7.664;2023-05-10T07:59:28;20.55;;;14.50;;
63943;SDS011;50121;51.218;7.664;2023-05-10T08:01:55;21.00;;;13.30;;
63943;SDS011;50121;51.218;7.664;2023-05-10T08:04:23;25.75;;;15.40;;
63943;SDS011;50121;51.218;7.664;2023-05-10T08:06:51;22.63;;;13.05;;
63943;SDS011;50121;51.218;7.664;2023-05-10T08:09:18;20.23;;;12.95;;
63943;SDS011;50121;51.218;7.664;2023-05-10T08:11:50;17.70;;;12.32;;
63943;SDS011;50121;51.218;7.664;2023-05-10T08:14:21;22.70;;;19.67;;
63943;SDS011;50121;51.218;7.664;2023-05-10T08:16:49;17.02;;;12.35;;
63943;SDS011;50121;51.218;7.664;2023-05-10T08:19:17;18.73;;;12.73;;
63943;SDS011;50121;51.218;7.664;2023-05-10T08:21:46;15.93;;;12.77;;
63943;SDS011;50121;51.218;7.664;2023-05-10T08:24:13;18.05;;;12.45;;
63943;SDS011;50121;51.218;7.664;2023-05-10T08:26:41;15.82;;;11.73;;
63943;SDS011;50121;51.218;7.664;2023-05-10T08:29:09;18.75;;;12.80;;
63943;SDS011;50121;51.218;7.664;2023-05-10T08:31:36;12.85;;;11.10;;
63943;SDS011;50121;51.218;7.664;2023-05-10T08:34:04;14.73;;;11.32;;
63943;SDS011;50121;51.218;7.664;2023-05-10T08:36:31;15.13;;;11.35;;
63943;SDS011;50121;51.218;7.664;2023-05-10T08:38:59;16.85;;;11.98;;
63943;SDS011;50121;51.218;7.664;2023-05-10T08:41:27;16.40;;;11.15;;
63943;SDS011;50121;51.218;7.664;2023-05-10T08:43:54;13.75;;;11.38;;
63943;SDS011;50121;51.218;7.664;2023-05-10T08:46:22;13.40;;;11.13;;
63943;SDS011;50121;51.218;7.664;2023-05-10T08:48:50;16.25;;;11.02;;
63943;SDS011;50121;51.218;7.664;2023-05-10T08:51:19;14.93;;;11.15;;
63943;SDS011;50121;51.218;7.664;2023-05-10T08:53:49;14.80;;;11.23;;
63943;SDS011;50121;51.218;7.664;2023-05-10T08:56:16;16.00;;;10.88;;
63943;SDS011;50121;51.218;7.664;2023-05-10T08:58:44;13.90;;;10.75;;
63943;SDS011;50121;51.218;7.664;2023-05-10T09:01:12;15.98;;;10.40;;
63943;SDS011;50121;51.218;7.664;2023-05-10T09:03:40;13.38;;;10.93;;
63943;SDS011;50121;51.218;7.664;2023-05-10T09:06:08;13.05;;;10.75;;
63943;SDS011;50121;51.218;7.664;2023-05-10T09:08:36;14.00;;;10.75;;
63943;SDS011;50121;51.218;7.664;2023-05-10T09:11:03;15.63;;;10.90;;
63943;SDS011;50121;51.218;7.664;2023-05-10T09:13:31;14.25;;;10.43;;
63943;SDS011;50121;51.218;7.664;2023-05-10T09:15:59;15.88;;;10.52;;
63943;SDS011;50121;51.218;7.664;2023-05-10T09:18:29;15.30;;;9.95;;
63943;SDS011;50121;51.218;7.664;2023-05-10T09:20:57;11.43;;;10.23;;
63943;SDS011;50121;51.218;7.664;2023-05-10T09:23:25;12.63;;;10.05;;
63943;SDS011;50121;51.218;7.664;2023-05-10T09:26:02;13.57;;;9.95;;
63943;SDS011;50121;51.218;7.664;2023-05-10T09:28:31;13.90;;;10.35;;
63943;SDS011;50121;51.218;7.664;2023-05-10T09:30:59;16.38;;;11.02;;
63943;SDS011;50121;51.218;7.664;2023-05-10T09:33:27;12.98;;;9.88;;
63943;SDS011;50121;51.218;7.664;2023-05-10T09:35:55;15.35;;;10.43;;
63943;SDS011;50121;51.218;7.664;2023-05-10T09:38:22;15.93;;;11.68;;
63943;SDS011;50121;51.218;7.664;2023-05-10T09:40:51;12.57;;;9.38;;
63943;SDS011;50121;51.218;7.664;2023-05-10T09:43:24;12.27;;;9.90;;
63943;SDS011;50121;51.218;7.664;2023-05-10T09:45:51;18.00;;;15.82;;
63943;SDS011;50121;51.218;7.664;2023-05-10T09:48:21;19.27;;;17.38;;
63943;SDS011;50121;51.218;7.664;2023-05-10T09:50:56;21.70;;;18.98;;
63943;SDS011;50121;51.218;7.664;2023-05-10T09:53:23;17.08;;;15.68;;
63943;SDS011;50121;51.218;7.664;2023-05-10T09:55:51;10.88;;;9.43;;
63943;SDS011;50121;51.218;7.664;2023-05-10T09:58:19;10.90;;;9.23;;
63943;SDS011;50121;51.218;7.664;2023-05-10T10:00:46;12.15;;;10.10;;
63943;SDS011;50121;51.218;7.664;2023-05-10T10:03:18;11.00;;;10.00;;
63943;SDS011;50121;51.218;7.664;2023-05-10T10:05:47;11.30;;;10.10;;
63943;SDS011;50121;51.218;7.664;2023-05-10T10:08:15;12.60;;;11.35;;
63943;SDS011;50121;51.218;7.664;2023-05-10T10:10:43;12.00;;;10.90;;
63943;SDS011;50121;51.218;7.664;2023-05-10T10:13:12;12.80;;;11.60;;
63943;SDS011;50121;51.218;7.664;2023-05-10T10:15:40;11.13;;;10.13;;
63943;SDS011;50121;51.218;7.664;2023-05-10T10:18:13;10.38;;;9.30;;
63943;SDS011;50121;51.218;7.664;2023-05-10T10:20:44;12.18;;;10.98;;
63943;SDS011;50121;51.218;7.664;2023-05-10T10:23:12;11.43;;;10.23;;
63943;SDS011;50121;51.218;7.664;2023-05-10T10:25:40;10.68;;;9.63;;
63943;SDS011;50121;51.218;7.664;2023-05-10T10:28:16;11.20;;;10.20;;
63943;SDS011;50121;51.218;7.664;2023-05-10T10:30:49;11.80;;;10.70;;
63943;SDS011;50121;51.218;7.664;2023-05-10T10:35:53;11.60;;;10.40;;
63943;SDS011;50121;51.218;7.664;2023-05-10T10:38:21;11.20;;;10.15;;
63943;SDS011;50121;51.218;7.664;2023-05-10T10:40:50;11.93;;;10.45;;
63943;SDS011;50121;51.218;7.664;2023-05-10T10:43:29;12.40;;;11.30;;
63943;SDS011;50121;51.218;7.664;2023-05-10T10:48:38;12.20;;;10.85;;
63943;SDS011;50121;51.218;7.664;2023-05-10T10:51:05;12.23;;;11.10;;
63943;SDS011;50121;51.218;7.664;2023-05-10T10:53:33;11.20;;;10.20;;
63943;SDS011;50121;51.218;7.664;2023-05-10T10:56:07;11.35;;;10.25;;
63943;SDS011;50121;51.218;7.664;2023-05-10T10:58:36;10.80;;;9.80;;
63943;SDS011;50121;51.218;7.664;2023-05-10T11:03:38;14.65;;;11.35;;
63943;SDS011;50121;51.218;7.664;2023-05-10T11:06:06;11.57;;;9.80;;
63943;SDS011;50121;51.218;7.664;2023-05-10T11:08:41;13.77;;;10.55;;
63943;SDS011;50121;51.218;7.664;2023-05-10T11:11:14;11.63;;;10.48;;
63943;SDS011;50121;51.218;7.664;2023-05-10T11:13:45;12.05;;;10.43;;
63943;SDS011;50121;51.218;7.664;2023-05-10T11:18:58;17.05;;;13.55;;
63943;SDS011;50121;51.218;7.664;2023-05-10T11:21:26;17.15;;;11.55;;
63943;SDS011;50121;51.218;7.664;2023-05-10T11:23:55;14.52;;;11.50;;
63943;SDS011;50121;51.218;7.664;2023-05-10T11:26:24;14.48;;;11.60;;
63943;SDS011;50121;51.218;7.664;2023-05-10T11:28:53;15.82;;;11.27;;
63943;SDS011;50121;51.218;7.664;2023-05-10T11:31:22;14.32;;;10.63;;
63943;SDS011;50121;51.218;7.664;2023-05-10T11:33:56;18.08;;;12.88;;
63943;SDS011;50121;51.218;7.664;2023-05-10T11:36:25;18.65;;;12.98;;
63943;SDS011;50121;51.218;7.664;2023-05-10T11:38:54;18.95;;;13.70;;
63943;SDS011;50121;51.218;7.664;2023-05-10T11:41:22;20.27;;;12.52;;
63943;SDS011;50121;51.218;7.664;2023-05-10T11:43:51;21.88;;;14.60;;
63943;SDS011;50121;51.218;7.664;2023-05-10T11:46:23;70.88;;;42.00;;
63943;SDS011;50121;51.218;7.664;2023-05-10T11:48:52;32.33;;;18.75;;
63943;SDS011;50121;51.218;7.664;2023-05-10T11:51:20;24.85;;;17.02;;
63943;SDS011;50121;51.218;7.664;2023-05-10T11:53:49;24.98;;;17.08;;
63943;SDS011;50121;51.218;7.664;2023-05-10T11:56:17;26.63;;;16.92;;
63943;SDS011;50121;51.218;7.664;2023-05-10T11:58:49;28.38;;;17.90;;
63943;SDS011;50121;51.218;7.664;2023-05-10T12:01:19;31.55;;;17.20;;
63943;SDS011;50121;51.218;7.664;2023-05-10T12:03:46;25.10;;;15.98;;
63943;SDS011;50121;51.218;7.664;2023-05-10T12:06:15;24.00;;;16.20;;
63943;SDS011;50121;51.218;7.664;2023-05-10T12:08:46;25.20;;;17.48;;
63943;SDS011;50121;51.218;7.664;2023-05-10T12:11:14;27.40;;;17.33;;
63943;SDS011;50121;51.218;7.664;2023-05-10T12:13:42;24.40;;;15.70;;
63943;SDS011;50121;51.218;7.664;2023-05-10T12:16:13;27.00;;;19.60;;
63943;SDS011;50121;51.218;7.664;2023-05-10T12:18:41;24.15;;;15.82;;
63943;SDS011;50121;51.218;7.664;2023-05-10T12:21:10;24.95;;;16.60;;
63943;SDS011;50121;51.218;7.664;2023-05-10T12:23:38;24.85;;;15.88;;
63943;SDS011;50121;51.218;7.664;2023-05-10T12:26:08;23.35;;;14.38;;
63943;SDS011;50121;51.218;7.664;2023-05-10T12:28:37;21.77;;;14.73;;
63943;SDS011;50121;51.218;7.664;2023-05-10T12:31:06;24.90;;;15.10;;
63943;SDS011;50121;51.218;7.664;2023-05-10T12:36:11;25.10;;;15.52;;
63943;SDS011;50121;51.218;7.664;2023-05-10T12:38:40;21.85;;;14.70;;
63943;SDS011;50121;51.218;7.664;2023-05-10T12:41:10;22.58;;;14.00;;
63943;SDS011;50121;51.218;7.664;2023-05-10T12:43:38;24.00;;;14.75;;
63943;SDS011;50121;51.218;7.664;2023-05-10T12:46:16;20.20;;;13.85;;
63943;SDS011;50121;51.218;7.664;2023-05-10T12:48:44;19.80;;;14.25;;
63943;SDS011;50121;51.218;7.664;2023-05-10T12:51:12;22.67;;;14.85;;
63943;SDS011;50121;51.218;7.664;2023-05-10T12:53:43;19.73;;;14.05;;
63943;SDS011;50121;51.218;7.664;2023-05-10T12:56:13;20.13;;;14.43;;
63943;SDS011;50121;51.218;7.664;2023-05-10T12:58:41;18.27;;;13.77;;
63943;SDS011;50121;51.218;7.664;2023-05-10T13:01:14;25.35;;;20.98;;
63943;SDS011;50121;51.218;7.664;2023-05-10T13:03:42;21.33;;;14.05;;
63943;SDS011;50121;51.218;7.664;2023-05-10T13:06:10;20.30;;;16.95;;
63943;SDS011;50121;51.218;7.664;2023-05-10T13:08:40;18.45;;;12.77;;
63943;SDS011;50121;51.218;7.664;2023-05-10T13:11:07;18.30;;;13.88;;
63943;SDS011;50121;51.218;7.664;2023-05-10T13:13:35;21.30;;;13.80;;
63943;SDS011;50121;51.218;7.664;2023-05-10T13:16:04;17.40;;;11.40;;
63943;SDS011;50121;51.218;7.664;2023-05-10T13:18:32;13.73;;;11.43;;
63943;SDS011;50121;51.218;7.664;2023-05-10T13:20:59;14.48;;;12.10;;
63943;SDS011;50121;51.218;7.664;2023-05-10T13:23:27;17.65;;;11.55;;
63943;SDS011;50121;51.218;7.664;2023-05-10T13:25:54;14.77;;;11.90;;
63943;SDS011;50121;51.218;7.664;2023-05-10T13:28:22;17.65;;;12.48;;
63943;SDS011;50121;51.218;7.664;2023-05-10T13:30:50;15.85;;;12.25;;
63943;SDS011;50121;51.218;7.664;2023-05-10T13:33:18;17.88;;;13.05;;
63943;SDS011;50121;51.218;7.664;2023-05-10T13:35:45;17.65;;;12.80;;
63943;SDS011;50121;51.218;7.664;2023-05-10T13:38:13;16.52;;;13.95;;
63943;SDS011;50121;51.218;7.664;2023-05-10T13:40:40;16.92;;;13.48;;
63943;SDS011;50121;51.218;7.664;2023-05-10T13:43:08;18.02;;;13.88;;
63943;SDS011;50121;51.218;7.664;2023-05-10T13:45:36;15.95;;;13.52;;
63943;SDS011;50121;51.218;7.664;2023-05-10T13:48:03;16.42;;;13.10;;
63943;SDS011;50121;51.218;7.664;2023-05-10T13:50:31;18.45;;;12.65;;
63943;SDS011;50121;51.218;7.664;2023-05-10T13:52:59;15.13;;;12.75;;
63943;SDS011;50121;51.218;7.664;2023-05-10T13:55:27;16.15;;;12.90;;
63943;SDS011;50121;51.218;7.664;2023-05-10T13:57:55;19.13;;;14.70;;
63943;SDS011;50121;51.218;7.664;2023-05-10T14:00:22;15.60;;;13.93;;
63943;SDS011;50121;51.218;7.664;2023-05-10T14:02:50;18.73;;;14.70;;
63943;SDS011;50121;51.218;7.664;2023-05-10T14:05:18;23.05;;;18.33;;
63943;SDS011;50121;51.218;7.664;2023-05-10T14:07:49;18.27;;;14.25;;
63943;SDS011;50121;51.218;7.664;2023-05-10T14:10:17;17.13;;;13.38;;
63943;SDS011;50121;51.218;7.664;2023-05-10T14:12:45;16.45;;;12.77;;
63943;SDS011;50121;51.218;7.664;2023-05-10T14:15:13;14.25;;;12.55;;
63943;SDS011;50121;51.218;7.664;2023-05-10T14:17:40;19.05;;;15.55;;
63943;SDS011;50121;51.218;7.664;2023-05-10T14:20:08;15.07;;;13.43;;
63943;SDS011;50121;51.218;7.664;2023-05-10T14:22:36;16.83;;;14.90;;
63943;SDS011;50121;51.218;7.664;2023-05-10T14:25:03;16.10;;;14.40;;
63943;SDS011;50121;51.218;7.664;2023-05-10T14:27:31;14.73;;;13.15;;
63943;SDS011;50121;51.218;7.664;2023-05-10T14:29:59;17.30;;;14.13;;
63943;SDS011;50121;51.218;7.664;2023-05-10T14:32:27;17.73;;;15.13;;
63943;SDS011;50121;51.218;7.664;2023-05-10T14:34:54;23.52;;;17.58;;
63943;SDS011;50121;51.218;7.664;2023-05-10T14:37:22;21.58;;;15.80;;
63943;SDS011;50121;51.218;7.664;2023-05-10T14:39:50;18.42;;;15.52;;
63943;SDS011;50121;51.218;7.664;2023-05-10T14:42:17;20.10;;;15.80;;
63943;SDS011;50121;51.218;7.664;2023-05-10T14:44:45;19.48;;;15.10;;
63943;SDS011;50121;51.218;7.664;2023-05-10T14:47:12;20.20;;;16.02;;
63943;SDS011;50121;51.218;7.664;2023-05-10T14:49:40;18.17;;;14.38;;
63943;SDS011;50121;51.218;7.664;2023-05-10T14:52:08;18.08;;;14.45;;
63943;SDS011;50121;51.218;7.664;2023-05-10T14:54:38;24.45;;;18.63;;
63943;SDS011;50121;51.218;7.664;2023-05-10T14:57:06;20.77;;;16.25;;
63943;SDS011;50121;51.218;7.664;2023-05-10T14:59:34;17.50;;;14.48;;
63943;SDS011;50121;51.218;7.664;2023-05-10T15:02:02;17.75;;;14.30;;
63943;SDS011;50121;51.218;7.664;2023-05-10T15:04:30;17.83;;;14.43;;
63943;SDS011;50121;51.218;7.664;2023-05-10T15:06:58;18.30;;;14.85;;